Time;durP1;ratioP1;P1;durP2;ratioP2;P2;SDS_P1;SDS_P2;PMS_P1;PMS_P2;Temp;Humidity;BMP_temperature;BMP_pressure;BME280_temperature;BME280_humidity;BME280_pressure;Samples;Min_cycle;Max_cycle;Signal;HPM_P1;HPM_P2
2023/07/31 00:01:12;;;;;;;1.57;1.35;;;21.50;59.60;;;;;;951249;148;27432;-76
2023/07/31 00:03:39;;;;;;;1.45;1.25;;;21.50;59.60;;;;;;951774;148;27318;-77
2023/07/31 00:06:05;;;;;;;3.65;1.32;;;21.50;59.60;;;;;;952385;148;27315;-77
2023/07/31 00:08:32;;;;;;;1.82;1.02;;;21.60;59.60;;;;;;951657;147;27672;-77
2023/07/31 00:10:58;;;;;;;4.58;1.22;;;21.60;59.60;;;;;;952331;148;27336;-77
2023/07/31 00:13:25;;;;;;;1.67;1.37;;;21.60;59.60;;;;;;951346;147;27741;-77
2023/07/31 00:15:52;;;;;;;1.90;1.50;;;21.60;59.60;;;;;;951906;148;27312;-77
2023/07/31 00:18:18;;;;;;;1.57;1.17;;;21.60;59.50;;;;;;952006;148;27353;-77
2023/07/31 00:20:45;;;;;;;2.40;1.45;;;21.60;59.60;;;;;;951173;148;27428;-77
2023/07/31 00:23:11;;;;;;;4.47;1.30;;;21.60;59.60;;;;;;952379;149;27360;-77
2023/07/31 00:25:38;;;;;;;3.87;1.20;;;21.60;59.60;;;;;;951803;148;27437;-77
2023/07/31 00:28:05;;;;;;;1.37;0.93;;;21.60;59.60;;;;;;952010;150;27315;-77
2023/07/31 00:30:31;;;;;;;1.80;1.30;;;21.60;59.60;;;;;;952176;147;27344;-77
2023/07/31 00:32:58;;;;;;;2.50;1.45;;;21.60;59.60;;;;;;952654;149;27433;-77
2023/07/31 00:35:24;;;;;;;3.98;1.50;;;21.60;59.60;;;;;;953323;149;27360;-77
2023/07/31 00:37:51;;;;;;;1.82;1.52;;;21.60;59.60;;;;;;953399;150;27417;-77
2023/07/31 00:40:17;;;;;;;2.00;1.30;;;21.70;59.60;;;;;;952642;148;27265;-77
2023/07/31 00:42:44;;;;;;;3.25;1.27;;;21.60;59.60;;;;;;953097;148;27414;-77
2023/07/31 00:45:11;;;;;;;2.65;1.50;;;21.60;59.60;;;;;;953440;148;27609;-77
2023/07/31 00:47:37;;;;;;;3.12;1.52;;;21.60;59.60;;;;;;952125;148;27309;-77
2023/07/31 00:50:04;;;;;;;4.03;1.22;;;21.60;59.60;;;;;;954648;146;27400;-76
2023/07/31 00:52:30;;;;;;;2.65;1.60;;;21.60;59.70;;;;;;959472;147;27441;-77
2023/07/31 00:54:57;;;;;;;1.05;1.02;;;21.60;59.60;;;;;;959751;148;27440;-77
2023/07/31 00:57:24;;;;;;;2.37;1.40;;;21.60;59.60;;;;;;958745;148;27296;-77
2023/07/31 00:59:50;;;;;;;5.40;1.52;;;21.60;59.60;;;;;;959262;148;27307;-77
2023/07/31 01:02:17;;;;;;;2.00;1.50;;;21.60;59.70;;;;;;959328;148;27307;-77
2023/07/31 01:04:43;;;;;;;4.47;2.20;;;21.60;59.70;;;;;;958952;146;27343;-77
2023/07/31 01:07:31;;;;;;;1.60;1.30;;;21.60;59.70;;;;;;958862;146;27308;-77
2023/07/31 01:10:16;;;;;;;1.87;1.17;;;21.60;59.70;;;;;;959754;148;27396;-77
2023/07/31 01:12:42;;;;;;;2.75;1.40;;;21.60;59.70;;;;;;959360;148;27256;-77
2023/07/31 01:15:12;;;;;;;1.60;1.25;;;21.60;59.70;;;;;;958867;146;27339;-77
2023/07/31 01:17:38;;;;;;;3.05;1.65;;;21.60;59.70;;;;;;958683;146;27364;-76
2023/07/31 01:20:05;;;;;;;3.37;1.70;;;21.60;59.70;;;;;;959386;148;27322;-77
2023/07/31 01:22:53;;;;;;;1.80;1.67;;;21.60;59.80;;;;;;958933;148;27399;-77
2023/07/31 01:25:50;;;;;;;1.77;1.10;;;21.60;59.80;;;;;;959735;148;27343;-76
2023/07/31 01:28:26;;;;;;;2.50;1.50;;;21.60;59.70;;;;;;958860;148;27449;-77
2023/07/31 01:30:52;;;;;;;3.00;1.85;;;21.60;59.70;;;;;;958733;148;27895;-76
2023/07/31 01:33:19;;;;;;;3.12;1.15;;;21.50;59.70;;;;;;958664;148;27416;-76
2023/07/31 01:35:46;;;;;;;2.45;1.47;;;21.50;59.80;;;;;;958433;146;27489;-77
2023/07/31 01:38:12;;;;;;;1.95;1.50;;;21.50;59.80;;;;;;959391;148;27315;-76
2023/07/31 01:40:39;;;;;;;2.42;1.35;;;21.50;59.80;;;;;;960087;148;27351;-77
2023/07/31 01:43:05;;;;;;;2.00;1.60;;;21.50;59.80;;;;;;958666;146;27415;-77
2023/07/31 01:45:32;;;;;;;2.62;1.40;;;21.50;59.90;;;;;;959050;148;27342;-76
2023/07/31 01:47:58;;;;;;;2.30;1.27;;;21.50;59.80;;;;;;958832;148;27316;-77
2023/07/31 01:50:25;;;;;;;1.37;1.27;;;21.50;59.80;;;;;;959606;146;27435;-76
2023/07/31 01:52:52;;;;;;;3.17;1.57;;;21.60;59.80;;;;;;959355;148;27331;-76
2023/07/31 01:55:18;;;;;;;2.40;1.40;;;21.60;60.10;;;;;;959395;148;27303;-76
2023/07/31 01:57:45;;;;;;;2.55;1.75;;;21.60;59.80;;;;;;959211;146;27268;-76
2023/07/31 02:00:11;;;;;;;2.10;1.47;;;21.60;59.80;;;;;;959554;148;27351;-76
2023/07/31 02:02:38;;;;;;;2.60;1.72;;;21.60;59.80;;;;;;959812;146;27363;-75
2023/07/31 02:05:05;;;;;;;2.75;1.40;;;21.60;59.80;;;;;;959148;146;27387;-75
2023/07/31 02:07:31;;;;;;;2.72;1.45;;;21.60;59.80;;;;;;958900;146;27268;-75
2023/07/31 02:09:58;;;;;;;2.87;1.47;;;21.60;59.80;;;;;;959361;148;27323;-75
2023/07/31 02:12:24;;;;;;;1.70;1.55;;;21.60;59.80;;;;;;959495;148;27335;-75
2023/07/31 02:14:51;;;;;;;1.92;1.42;;;21.60;59.90;;;;;;959342;148;27343;-75
2023/07/31 02:17:18;;;;;;;3.90;1.40;;;21.60;59.90;;;;;;958418;146;27325;-75
2023/07/31 02:19:44;;;;;;;2.70;1.90;;;21.60;59.90;;;;;;959142;148;27314;-75
2023/07/31 02:22:11;;;;;;;2.87;1.60;;;21.60;59.30;;;;;;959459;148;27327;-75
2023/07/31 02:24:37;;;;;;;2.95;1.67;;;21.60;59.90;;;;;;959365;148;27413;-75
2023/07/31 02:27:04;;;;;;;2.45;1.50;;;21.60;59.90;;;;;;958368;148;27864;-75
2023/07/31 02:29:30;;;;;;;2.27;1.70;;;21.60;59.90;;;;;;958853;146;27368;-75
2023/07/31 02:31:57;;;;;;;2.62;1.60;;;21.60;59.90;;;;;;959239;148;27333;-75
2023/07/31 02:34:24;;;;;;;3.22;2.02;;;21.60;59.90;;;;;;959807;148;27379;-75
2023/07/31 02:36:50;;;;;;;2.47;1.50;;;21.60;59.90;;;;;;959384;149;27351;-75
2023/07/31 02:39:17;;;;;;;2.60;1.50;;;21.60;60.00;;;;;;959202;148;27821;-75
2023/07/31 02:41:43;;;;;;;1.72;1.60;;;21.60;60.00;;;;;;959214;149;27334;-75
2023/07/31 02:44:13;;;;;;;2.70;1.47;;;21.60;60.00;;;;;;958912;148;27667;-75
2023/07/31 02:46:37;;;;;;;2.50;1.72;;;21.60;60.00;;;;;;959565;148;27355;-75
2023/07/31 02:49:03;;;;;;;3.45;1.57;;;21.60;60.00;;;;;;959053;148;27320;-75
2023/07/31 02:51:30;;;;;;;2.75;1.80;;;21.60;60.00;;;;;;957796;146;27297;-75
2023/07/31 02:53:56;;;;;;;2.08;1.50;;;21.60;60.00;;;;;;952200;149;27427;-75
2023/07/31 02:56:23;;;;;;;1.95;1.45;;;21.60;60.00;;;;;;952449;148;27890;-75
2023/07/31 02:58:50;;;;;;;3.55;1.50;;;21.60;60.00;;;;;;952422;147;27457;-75
2023/07/31 03:01:16;;;;;;;2.85;1.70;;;21.60;60.00;;;;;;952910;148;27311;-75
2023/07/31 03:03:43;;;;;;;1.82;1.42;;;21.60;60.00;;;;;;952405;149;27313;-75
2023/07/31 03:06:09;;;;;;;2.27;1.40;;;21.60;60.10;;;;;;953063;148;27268;-75
2023/07/31 03:08:36;;;;;;;2.85;1.90;;;21.60;60.10;;;;;;952155;147;27355;-75
2023/07/31 03:11:03;;;;;;;3.27;2.20;;;21.60;60.10;;;;;;953580;148;27396;-75
2023/07/31 03:13:29;;;;;;;2.52;1.52;;;21.60;60.20;;;;;;951836;148;27373;-75
2023/07/31 03:15:56;;;;;;;2.37;1.37;;;21.60;60.20;;;;;;953328;150;27398;-75
2023/07/31 03:18:22;;;;;;;1.37;1.27;;;21.60;60.00;;;;;;952060;147;27709;-75
2023/07/31 03:20:49;;;;;;;1.95;1.35;;;21.60;60.30;;;;;;953227;147;27335;-75
2023/07/31 03:23:15;;;;;;;2.35;1.70;;;21.50;60.30;;;;;;952447;147;27315;-75
2023/07/31 03:25:42;;;;;;;2.92;1.65;;;21.50;60.30;;;;;;952578;148;27406;-75
2023/07/31 03:28:09;;;;;;;3.25;1.85;;;21.50;60.40;;;;;;949991;148;27355;-75
2023/07/31 03:30:36;;;;;;;1.90;1.67;;;21.50;60.40;;;;;;951984;149;27437;-75
2023/07/31 03:33:02;;;;;;;2.37;1.60;;;21.50;60.80;;;;;;952382;147;27356;-75
2023/07/31 03:35:28;;;;;;;2.27;1.90;;;21.50;61.50;;;;;;952388;148;27339;-75
2023/07/31 03:37:55;;;;;;;2.55;1.60;;;21.40;62.10;;;;;;953629;147;27414;-75
2023/07/31 03:40:22;;;;;;;2.60;1.85;;;21.40;62.30;;;;;;953155;147;27347;-75
2023/07/31 03:42:48;;;;;;;2.85;1.57;;;21.40;62.50;;;;;;952740;147;27417;-75
2023/07/31 03:45:15;;;;;;;2.77;1.50;;;21.30;62.60;;;;;;953050;148;27436;-75
2023/07/31 03:47:41;;;;;;;2.47;2.10;;;21.30;62.80;;;;;;952388;149;27393;-75
2023/07/31 03:50:08;;;;;;;3.47;1.90;;;21.20;62.90;;;;;;953261;147;27289;-75
2023/07/31 03:52:35;;;;;;;2.02;1.82;;;21.20;63.20;;;;;;955713;148;27399;-75
2023/07/31 03:55:01;;;;;;;2.20;1.98;;;21.10;63.40;;;;;;959112;148;27318;-75
2023/07/31 03:57:28;;;;;;;2.12;1.92;;;21.00;63.50;;;;;;959535;148;27331;-75
2023/07/31 03:59:54;;;;;;;4.70;2.02;;;20.90;63.70;;;;;;959455;148;27256;-75
2023/07/31 04:02:21;;;;;;;4.42;1.87;;;20.90;63.90;;;;;;959103;148;27428;-75
2023/07/31 04:04:47;;;;;;;2.58;1.85;;;20.80;64.10;;;;;;959297;148;27962;-75
2023/07/31 04:07:14;;;;;;;2.83;2.40;;;20.70;64.20;;;;;;959199;148;27249;-75
2023/07/31 04:09:41;;;;;;;4.75;2.22;;;20.70;64.40;;;;;;959029;146;27392;-75
2023/07/31 04:12:07;;;;;;;3.45;1.77;;;20.70;64.50;;;;;;957959;148;27336;-75
2023/07/31 04:14:34;;;;;;;3.55;1.70;;;20.60;64.60;;;;;;959380;148;27412;-75
2023/07/31 04:17:00;;;;;;;1.82;1.52;;;20.60;64.90;;;;;;959250;149;27396;-75
2023/07/31 04:19:27;;;;;;;3.92;1.62;;;20.60;65.00;;;;;;959077;148;27314;-75
2023/07/31 04:21:54;;;;;;;2.92;1.50;;;20.50;65.00;;;;;;959036;148;27391;-75
2023/07/31 04:24:24;;;;;;;2.60;1.82;;;20.50;65.10;;;;;;958812;148;27353;-75
2023/07/31 04:26:47;;;;;;;3.58;1.95;;;20.50;65.20;;;;;;958750;148;27432;-75
2023/07/31 04:29:13;;;;;;;3.67;3.00;;;20.50;65.30;;;;;;959799;146;27306;-75
2023/07/31 04:31:40;;;;;;;3.35;1.90;;;20.50;65.40;;;;;;959153;148;27261;-75
2023/07/31 04:34:07;;;;;;;5.97;2.67;;;20.50;65.50;;;;;;958547;146;27538;-75
2023/07/31 04:36:33;;;;;;;3.75;1.92;;;20.50;65.50;;;;;;958905;146;27358;-75
2023/07/31 04:39:00;;;;;;;3.55;1.65;;;20.50;65.80;;;;;;959517;146;27300;-75
2023/07/31 04:41:26;;;;;;;2.02;1.80;;;20.50;65.50;;;;;;959037;148;27260;-75
2023/07/31 04:43:53;;;;;;;4.08;2.25;;;20.60;65.50;;;;;;959548;146;27379;-75
2023/07/31 04:46:19;;;;;;;1.92;1.65;;;20.60;66.30;;;;;;959662;146;27329;-75
2023/07/31 04:48:46;;;;;;;3.67;1.82;;;20.60;65.50;;;;;;958783;146;27335;-75
2023/07/31 04:51:13;;;;;;;2.60;1.90;;;20.60;65.50;;;;;;959294;146;27383;-75
2023/07/31 04:53:39;;;;;;;3.22;1.98;;;20.60;65.70;;;;;;955219;148;27437;-75
2023/07/31 04:56:06;;;;;;;4.83;2.35;;;20.70;65.70;;;;;;952983;149;27389;-75
2023/07/31 04:58:32;;;;;;;4.67;2.05;;;20.70;65.70;;;;;;953096;147;27351;-75
2023/07/31 05:00:59;;;;;;;1.98;1.67;;;20.80;65.80;;;;;;952769;148;27780;-75
2023/07/31 05:03:26;;;;;;;4.55;2.70;;;20.80;65.80;;;;;;953363;149;27315;-75
2023/07/31 05:05:52;;;;;;;2.65;1.98;;;20.90;65.80;;;;;;953251;147;27316;-75
2023/07/31 05:08:19;;;;;;;3.27;1.90;;;20.90;65.70;;;;;;951875;147;27389;-75
2023/07/31 05:10:45;;;;;;;2.40;1.52;;;20.90;65.80;;;;;;952228;147;27349;-75
2023/07/31 05:13:12;;;;;;;3.70;2.00;;;21.00;65.70;;;;;;952894;148;27399;-75
2023/07/31 05:15:39;;;;;;;4.55;1.60;;;21.10;65.70;;;;;;952946;148;27327;-75
2023/07/31 05:18:05;;;;;;;2.87;2.02;;;21.10;65.60;;;;;;952772;149;27316;-75
2023/07/31 05:20:32;;;;;;;2.10;1.82;;;21.10;65.60;;;;;;952954;147;27352;-76
2023/07/31 05:22:58;;;;;;;1.98;1.60;;;21.20;65.50;;;;;;953544;148;27340;-76
2023/07/31 05:25:25;;;;;;;2.65;1.77;;;21.20;65.50;;;;;;953306;147;27272;-75
2023/07/31 05:27:51;;;;;;;2.75;1.67;;;21.30;65.60;;;;;;953215;147;27414;-75
2023/07/31 05:30:18;;;;;;;2.05;1.85;;;21.30;65.60;;;;;;952526;148;27437;-75
2023/07/31 05:32:45;;;;;;;2.20;1.65;;;21.40;65.60;;;;;;952983;148;27339;-75
2023/07/31 05:35:11;;;;;;;3.70;1.77;;;21.40;65.50;;;;;;951457;147;27449;-75
2023/07/31 05:37:38;;;;;;;2.30;1.60;;;21.50;65.60;;;;;;952815;148;27391;-75
2023/07/31 05:40:05;;;;;;;3.85;2.10;;;21.50;65.50;;;;;;952947;148;27312;-75
2023/07/31 05:42:31;;;;;;;2.27;1.90;;;21.60;65.40;;;;;;953289;148;27351;-75
2023/07/31 05:44:58;;;;;;;2.10;1.85;;;21.60;65.40;;;;;;953282;149;27342;-75
2023/07/31 05:47:24;;;;;;;2.95;1.85;;;21.60;65.40;;;;;;952494;147;27459;-75
2023/07/31 05:49:54;;;;;;;3.50;1.62;;;21.70;65.30;;;;;;952469;147;27323;-75
2023/07/31 05:52:20;;;;;;;2.10;1.90;;;21.80;65.20;;;;;;952606;148;27396;-75
2023/07/31 05:54:47;;;;;;;3.35;1.87;;;21.80;64.80;;;;;;952904;148;27364;-75
2023/07/31 05:57:14;;;;;;;3.15;2.15;;;21.80;64.60;;;;;;953144;149;27391;-76
2023/07/31 05:59:40;;;;;;;3.33;2.10;;;21.80;64.50;;;;;;952017;148;27288;-75
2023/07/31 06:02:07;;;;;;;3.00;1.80;;;21.90;64.50;;;;;;953217;148;27387;-75
2023/07/31 06:04:33;;;;;;;3.80;1.87;;;21.80;64.40;;;;;;952616;147;27398;-76
2023/07/31 06:07:00;;;;;;;6.60;2.08;;;21.90;64.50;;;;;;950040;147;27289;-75
2023/07/31 06:09:27;;;;;;;1.92;1.72;;;21.90;64.50;;;;;;950906;147;27396;-75
2023/07/31 06:11:53;;;;;;;3.87;1.85;;;21.90;64.50;;;;;;951611;147;27412;-75
2023/07/31 06:14:20;;;;;;;4.70;2.02;;;22.00;64.50;;;;;;949889;146;27443;-75
2023/07/31 06:16:46;;;;;;;3.80;1.72;;;22.00;64.50;;;;;;942839;149;27354;-75
2023/07/31 06:19:13;;;;;;;2.00;1.80;;;22.10;64.40;;;;;;942640;149;27366;-75
2023/07/31 06:21:41;;;;;;;9.88;2.25;;;22.10;64.40;;;;;;942834;149;27484;-75
2023/07/31 06:24:06;;;;;;;2.58;1.75;;;22.20;64.30;;;;;;942439;149;27427;-75
2023/07/31 06:26:33;;;;;;;3.72;2.20;;;22.30;64.20;;;;;;943101;149;27384;-75
2023/07/31 06:28:59;;;;;;;1.80;1.50;;;22.30;64.10;;;;;;942306;149;27425;-75
2023/07/31 06:31:26;;;;;;;3.08;1.80;;;22.40;64.10;;;;;;942716;149;27413;-75
2023/07/31 06:33:52;;;;;;;2.90;1.98;;;22.50;64.00;;;;;;942710;149;27432;-75
2023/07/31 06:36:19;;;;;;;2.92;1.80;;;22.70;64.10;;;;;;950417;147;27438;-75
2023/07/31 06:38:46;;;;;;;1.98;1.77;;;22.80;64.00;;;;;;950701;147;27322;-75
2023/07/31 06:41:12;;;;;;;3.08;2.10;;;23.00;64.10;;;;;;950235;147;27827;-75
2023/07/31 06:43:39;;;;;;;2.67;1.72;;;23.30;64.40;;;;;;926498;150;27328;-75
2023/07/31 06:46:08;;;;;;;3.62;2.10;;;23.50;63.90;;;;;;942741;149;27355;-75
2023/07/31 06:48:36;;;;;;;1.77;1.67;;;23.80;63.40;;;;;;941903;149;27366;-75
2023/07/31 06:51:01;;;;;;;2.33;2.05;;;24.00;63.00;;;;;;933808;150;27397;-75
2023/07/31 06:53:28;;;;;;;2.02;1.50;;;24.20;62.30;;;;;;951412;147;27340;-75
2023/07/31 06:55:54;;;;;;;2.50;1.72;;;24.30;61.80;;;;;;949928;147;27322;-75
2023/07/31 06:58:21;;;;;;;2.25;1.75;;;24.50;61.50;;;;;;950016;146;27629;-75
2023/07/31 07:00:49;;;;;;;2.58;1.75;;;24.60;61.00;;;;;;934057;150;27323;-75
2023/07/31 07:03:14;;;;;;;1.75;1.32;;;24.70;60.70;;;;;;949918;147;27442;-75
2023/07/31 07:05:41;;;;;;;2.08;1.80;;;24.90;60.70;;;;;;951184;147;27971;-75
2023/07/31 07:08:07;;;;;;;2.80;1.77;;;25.00;61.00;;;;;;950910;147;27334;-75
2023/07/31 07:10:34;;;;;;;2.22;1.52;;;25.40;61.70;;;;;;949428;146;27400;-75
2023/07/31 07:13:00;;;;;;;2.75;1.90;;;25.90;62.80;;;;;;933284;150;27277;-75
2023/07/31 07:15:28;;;;;;;3.58;1.67;;;26.50;62.90;;;;;;950236;147;27349;-75
2023/07/31 07:17:54;;;;;;;4.30;2.20;;;27.20;61.80;;;;;;949807;147;27341;-75
2023/07/31 07:20:20;;;;;;;1.77;1.60;;;27.80;60.40;;;;;;949112;147;27373;-76
2023/07/31 07:22:47;;;;;;;3.83;1.62;;;28.40;59.60;;;;;;925777;150;27712;-76
2023/07/31 07:25:13;;;;;;;4.03;1.72;;;28.90;58.40;;;;;;928040;150;27402;-75
2023/07/31 07:27:40;;;;;;;2.37;1.85;;;29.30;57.30;;;;;;926132;150;27338;-76
2023/07/31 07:30:07;;;;;;;1.80;1.70;;;29.60;56.20;;;;;;934461;149;27482;-75
2023/07/31 07:32:33;;;;;;;1.85;1.60;;;29.60;55.20;;;;;;927508;150;27371;-76
2023/07/31 07:35:00;;;;;;;2.35;1.50;;;29.60;54.70;;;;;;950089;147;27287;-76
2023/07/31 07:37:27;;;;;;;3.10;1.82;;;29.50;54.10;;;;;;949899;147;27240;-76
2023/07/31 07:39:53;;;;;;;2.25;2.05;;;29.40;53.80;;;;;;951098;147;27329;-75
2023/07/31 07:42:20;;;;;;;2.55;1.87;;;29.20;53.70;;;;;;927646;150;27352;-75
2023/07/31 07:44:46;;;;;;;3.95;1.80;;;29.00;53.70;;;;;;942042;149;27319;-75
2023/07/31 07:47:13;;;;;;;3.27;2.00;;;28.90;54.00;;;;;;942669;149;27431;-75
2023/07/31 07:49:39;;;;;;;3.80;1.90;;;28.90;54.50;;;;;;933121;150;27316;-76
2023/07/31 07:52:06;;;;;;;3.55;1.90;;;29.00;55.00;;;;;;950484;147;27348;-76
2023/07/31 07:54:33;;;;;;;2.35;1.60;;;29.10;55.40;;;;;;953238;146;27432;-76
2023/07/31 07:56:59;;;;;;;2.08;1.85;;;29.40;55.20;;;;;;966630;145;27741;-76
2023/07/31 07:59:26;;;;;;;2.77;1.82;;;29.70;54.80;;;;;;945947;148;27706;-76
2023/07/31 08:01:53;;;;;;;3.08;1.62;;;29.90;54.10;;;;;;963946;146;27318;-76
2023/07/31 08:04:19;;;;;;;3.08;2.10;;;30.00;53.00;;;;;;946467;148;27345;-76
2023/07/31 08:06:46;;;;;;;2.40;1.90;;;30.00;52.70;;;;;;947120;148;27328;-76
2023/07/31 08:09:12;;;;;;;3.37;2.10;;;30.00;52.50;;;;;;945725;148;27442;-76
2023/07/31 08:11:39;;;;;;;2.65;1.82;;;30.00;52.60;;;;;;962741;146;27473;-75
2023/07/31 08:14:05;;;;;;;1.72;1.60;;;29.90;52.70;;;;;;962994;146;27347;-75
2023/07/31 08:16:32;;;;;;;3.65;2.00;;;30.00;52.80;;;;;;945897;148;27354;-75
2023/07/31 08:18:59;;;;;;;2.67;1.98;;;30.00;52.90;;;;;;961678;146;27332;-76
2023/07/31 08:21:25;;;;;;;2.98;1.75;;;30.10;52.60;;;;;;963665;145;27237;-75
2023/07/31 08:23:52;;;;;;;3.05;2.00;;;30.10;52.40;;;;;;966379;145;27326;-75
2023/07/31 08:26:18;;;;;;;2.25;1.77;;;30.10;52.10;;;;;;944127;148;27374;-76
2023/07/31 08:28:45;;;;;;;3.15;1.90;;;30.10;52.00;;;;;;963199;146;27249;-75
2023/07/31 08:31:11;;;;;;;1.95;1.45;;;30.10;52.20;;;;;;963633;146;27756;-75
2023/07/31 08:33:38;;;;;;;1.55;1.45;;;30.10;52.00;;;;;;943222;149;27436;-75
2023/07/31 08:36:05;;;;;;;2.90;1.87;;;30.10;51.50;;;;;;962874;146;27411;-75
2023/07/31 08:38:31;;;;;;;3.22;1.92;;;30.00;51.20;;;;;;962767;146;27406;-76
2023/07/31 08:40:58;;;;;;;1.67;1.50;;;29.90;51.10;;;;;;966514;145;27334;-75
2023/07/31 08:43:27;;;;;;;2.20;1.92;;;29.60;50.90;;;;;;945650;148;27387;-75
2023/07/31 08:45:54;;;;;;;2.52;1.87;;;29.40;50.80;;;;;;940987;148;27380;-75
2023/07/31 08:48:20;;;;;;;2.22;1.60;;;29.10;50.80;;;;;;961882;146;27431;-76
2023/07/31 08:50:47;;;;;;;4.17;1.90;;;28.90;51.00;;;;;;945172;148;27281;-76
2023/07/31 08:53:13;;;;;;;3.92;1.75;;;28.60;51.40;;;;;;962559;145;27368;-76
2023/07/31 08:55:40;;;;;;;2.17;1.80;;;28.40;51.70;;;;;;956732;146;27438;-76
2023/07/31 08:58:07;;;;;;;2.02;1.82;;;28.20;51.80;;;;;;927313;150;27359;-75
2023/07/31 09:00:33;;;;;;;2.20;1.60;;;28.00;52.70;;;;;;949727;147;27336;-75
2023/07/31 09:03:02;;;;;;;5.05;1.80;;;27.90;52.50;;;;;;933159;150;27697;-76
2023/07/31 09:05:27;;;;;;;2.05;1.72;;;27.90;52.80;;;;;;949257;147;27333;-76
2023/07/31 09:07:53;;;;;;;1.72;1.57;;;27.80;52.80;;;;;;949415;147;27322;-76
2023/07/31 09:10:20;;;;;;;5.72;2.33;;;27.80;52.70;;;;;;948040;147;27301;-75
2023/07/31 09:12:46;;;;;;;2.80;1.92;;;27.70;52.60;;;;;;950133;147;27390;-76
2023/07/31 09:15:13;;;;;;;2.98;2.12;;;27.70;52.60;;;;;;950988;147;27282;-76
2023/07/31 09:17:39;;;;;;;1.85;1.40;;;27.60;52.70;;;;;;934124;150;27449;-75
2023/07/31 09:20:21;;;;;;;3.40;1.50;;;27.50;52.70;;;;;;948998;147;27287;-76
2023/07/31 09:22:48;;;;;;;3.70;1.82;;;27.40;52.90;;;;;;932644;150;27319;-76
2023/07/31 09:25:24;;;;;;;2.75;1.98;;;27.40;53.20;;;;;;926995;150;27328;-76
2023/07/31 09:27:53;;;;;;;1.60;1.50;;;27.40;53.50;;;;;;950158;147;27318;-76
2023/07/31 09:30:20;;;;;;;2.52;1.77;;;27.40;53.90;;;;;;926447;150;27351;-76
2023/07/31 09:32:47;;;;;;;1.92;1.45;;;27.50;53.90;;;;;;949987;147;27334;-76
2023/07/31 09:35:16;;;;;;;1.67;1.57;;;27.50;53.60;;;;;;935161;149;27358;-76
2023/07/31 09:37:43;;;;;;;2.33;1.80;;;27.50;53.40;;;;;;935528;149;27426;-76
2023/07/31 09:40:09;;;;;;;2.72;2.00;;;27.50;53.30;;;;;;949212;147;27327;-76
2023/07/31 09:42:36;;;;;;;3.77;1.90;;;27.60;53.50;;;;;;949341;147;27422;-75
2023/07/31 09:45:09;;;;;;;3.50;2.05;;;27.60;53.30;;;;;;949104;146;27300;-76
2023/07/31 09:47:35;;;;;;;2.67;2.00;;;27.50;53.30;;;;;;927624;150;27326;-76
2023/07/31 09:50:02;;;;;;;2.77;2.00;;;27.50;53.50;;;;;;949777;147;27307;-76
2023/07/31 09:52:28;;;;;;;3.35;1.60;;;27.50;53.50;;;;;;931992;149;27431;-75
2023/07/31 09:54:55;;;;;;;5.70;2.20;;;27.60;53.70;;;;;;933741;150;27754;-76
2023/07/31 09:57:22;;;;;;;1.87;1.70;;;27.70;53.70;;;;;;956571;147;27383;-75
2023/07/31 09:59:49;;;;;;;2.98;1.90;;;27.80;54.10;;;;;;967733;145;27403;-75
2023/07/31 10:02:15;;;;;;;2.85;2.00;;;27.90;53.80;;;;;;966399;145;27303;-76
2023/07/31 10:04:41;;;;;;;3.40;2.22;;;28.00;53.50;;;;;;968653;145;27310;-76
2023/07/31 10:07:08;;;;;;;2.45;1.98;;;28.00;53.30;;;;;;967671;145;27321;-76
2023/07/31 10:09:34;;;;;;;3.02;1.90;;;28.00;53.10;;;;;;950241;148;27408;-75
2023/07/31 10:12:01;;;;;;;3.55;1.77;;;28.00;53.00;;;;;;968300;145;27389;-76
2023/07/31 10:14:28;;;;;;;2.65;2.12;;;28.00;53.10;;;;;;967584;145;27272;-75
2023/07/31 10:16:54;;;;;;;6.47;2.20;;;27.90;53.20;;;;;;948347;148;27457;-76
2023/07/31 10:19:21;;;;;;;3.67;2.22;;;27.90;53.20;;;;;;951000;148;27315;-76
2023/07/31 10:21:47;;;;;;;2.00;1.80;;;27.90;53.40;;;;;;951415;148;27350;-75
2023/07/31 10:24:14;;;;;;;2.80;2.02;;;27.80;53.30;;;;;;957821;147;27413;-76
2023/07/31 10:26:41;;;;;;;3.47;2.20;;;27.80;53.40;;;;;;947864;148;27853;-76
2023/07/31 10:29:07;;;;;;;2.58;1.90;;;27.90;53.30;;;;;;968047;145;27448;-75
2023/07/31 10:31:34;;;;;;;3.65;2.30;;;27.90;53.30;;;;;;950324;148;27333;-76
2023/07/31 10:34:02;;;;;;;2.70;2.20;;;27.90;53.20;;;;;;967290;145;27369;-76
2023/07/31 10:36:27;;;;;;;3.05;1.90;;;28.00;52.90;;;;;;948648;148;27404;-76
2023/07/31 10:38:54;;;;;;;3.83;2.45;;;28.10;52.80;;;;;;969645;145;27458;-76
2023/07/31 10:41:20;;;;;;;2.50;2.10;;;28.00;52.50;;;;;;967959;145;27248;-76
2023/07/31 10:43:47;;;;;;;3.37;2.00;;;28.10;52.50;;;;;;966779;145;27388;-76
2023/07/31 10:46:13;;;;;;;3.00;2.05;;;28.10;52.80;;;;;;958919;147;27433;-75
2023/07/31 10:48:41;;;;;;;2.52;1.98;;;28.30;52.90;;;;;;958373;147;27343;-76
2023/07/31 10:51:12;;;;;;;3.12;2.35;;;28.40;52.80;;;;;;945071;147;27480;-75
2023/07/31 10:53:39;;;;;;;3.42;2.05;;;28.60;52.60;;;;;;953833;147;27461;-76
2023/07/31 10:56:05;;;;;;;3.80;2.05;;;28.70;52.30;;;;;;967903;145;27307;-76
2023/07/31 10:58:32;;;;;;;2.62;2.05;;;28.80;52.00;;;;;;949699;147;27353;-76
2023/07/31 11:01:04;;;;;;;4.97;1.90;;;28.80;51.90;;;;;;950607;147;27403;-76
2023/07/31 11:03:42;;;;;;;3.05;1.95;;;28.90;51.90;;;;;;947137;147;27280;-76
2023/07/31 11:06:09;;;;;;;3.22;2.50;;;28.90;51.80;;;;;;941425;149;27720;-76
2023/07/31 11:08:36;;;;;;;2.52;1.87;;;28.90;51.60;;;;;;948448;147;27409;-76
2023/07/31 11:11:02;;;;;;;3.95;2.30;;;28.90;51.60;;;;;;942172;149;27315;-76
2023/07/31 11:13:31;;;;;;;2.37;1.82;;;28.90;51.60;;;;;;948266;147;27327;-76
2023/07/31 11:15:58;;;;;;;2.20;2.00;;;28.90;51.60;;;;;;941716;149;27454;-76
2023/07/31 11:18:25;;;;;;;3.52;2.00;;;29.00;51.60;;;;;;947898;147;27430;-76
2023/07/31 11:20:51;;;;;;;3.05;2.10;;;28.90;51.50;;;;;;942702;149;27355;-76
2023/07/31 11:23:18;;;;;;;3.05;2.25;;;28.90;51.30;;;;;;942559;149;27415;-76
2023/07/31 11:25:45;;;;;;;2.52;2.00;;;28.90;51.30;;;;;;948650;147;27297;-76
2023/07/31 11:28:11;;;;;;;3.05;1.90;;;28.80;51.20;;;;;;948164;147;27414;-76
2023/07/31 11:30:38;;;;;;;4.40;2.30;;;28.80;51.20;;;;;;948168;147;27321;-76
2023/07/31 11:33:04;;;;;;;2.40;1.87;;;28.80;51.30;;;;;;929042;149;27341;-76
2023/07/31 11:35:44;;;;;;;2.55;1.90;;;28.70;51.00;;;;;;950506;147;27302;-76
2023/07/31 11:38:13;;;;;;;3.87;2.58;;;28.70;51.00;;;;;;949521;147;27366;-75
2023/07/31 11:40:43;;;;;;;3.72;2.00;;;28.70;51.10;;;;;;934730;147;27330;-75
2023/07/31 11:43:11;;;;;;;2.85;2.58;;;28.60;51.20;;;;;;931026;149;27387;-75
2023/07/31 11:45:36;;;;;;;4.05;2.62;;;28.60;51.80;;;;;;932970;149;27384;-75
2023/07/31 11:48:03;;;;;;;3.52;2.87;;;28.60;51.00;;;;;;948498;148;27399;-75
2023/07/31 11:50:29;;;;;;;3.35;1.98;;;28.60;50.80;;;;;;947141;148;27434;-75
2023/07/31 11:52:58;;;;;;;2.72;2.02;;;28.60;50.60;;;;;;947379;148;27356;-75
2023/07/31 11:55:25;;;;;;;2.55;2.20;;;28.70;50.60;;;;;;949107;148;27372;-75
2023/07/31 11:57:51;;;;;;;3.00;2.02;;;28.60;50.40;;;;;;948353;148;27427;-75
2023/07/31 12:00:18;;;;;;;3.40;2.00;;;28.60;50.40;;;;;;948968;148;27421;-75
2023/07/31 12:02:45;;;;;;;2.67;2.00;;;28.60;50.20;;;;;;947914;148;27442;-75
2023/07/31 12:05:14;;;;;;;2.45;1.70;;;28.60;50.30;;;;;;948061;148;27375;-75
2023/07/31 12:07:46;;;;;;;2.37;1.90;;;28.60;50.30;;;;;;948109;148;27338;-75
2023/07/31 12:10:13;;;;;;;2.20;1.92;;;28.50;50.30;;;;;;948020;148;27531;-75
2023/07/31 12:12:39;;;;;;;2.02;1.82;;;28.50;50.30;;;;;;944576;148;27833;-75
2023/07/31 12:15:06;;;;;;;3.90;1.92;;;28.40;50.10;;;;;;948063;148;27328;-75
2023/07/31 12:17:32;;;;;;;3.90;1.77;;;28.30;50.00;;;;;;946245;148;27403;-75
2023/07/31 12:19:59;;;;;;;2.30;2.10;;;28.20;50.10;;;;;;947826;148;27493;-75
2023/07/31 12:22:26;;;;;;;1.80;1.70;;;28.10;50.30;;;;;;948294;148;27382;-74
2023/07/31 12:24:52;;;;;;;3.17;1.85;;;28.00;50.30;;;;;;947732;148;27317;-74
2023/07/31 12:27:21;;;;;;;2.40;1.92;;;28.00;50.50;;;;;;948189;148;27342;-75
2023/07/31 12:29:45;;;;;;;3.72;2.02;;;27.80;50.40;;;;;;948576;148;27467;-75
2023/07/31 12:32:21;;;;;;;2.65;1.77;;;27.80;50.60;;;;;;948717;148;27466;-75
2023/07/31 12:34:48;;;;;;;3.12;2.00;;;27.70;50.70;;;;;;948540;148;27408;-75
2023/07/31 12:37:14;;;;;;;2.42;1.80;;;27.70;50.80;;;;;;949086;148;27376;-75
2023/07/31 12:39:41;;;;;;;6.17;1.67;;;27.70;51.00;;;;;;948610;148;27343;-75
2023/07/31 12:42:07;;;;;;;2.87;2.05;;;27.60;51.10;;;;;;948629;148;27336;-75
2023/07/31 12:44:34;;;;;;;1.82;1.72;;;27.60;51.20;;;;;;948814;148;27438;-75
2023/07/31 12:47:01;;;;;;;1.82;1.70;;;27.60;51.20;;;;;;948458;148;27452;-75